Ayers, Illinois
Current Conditions -  °F | °C
As of 8:35 PM on Wednesday 22 Oct 2014 (Local Time) from K3LF Reporting Station
Clear Clear  
Wind Chill:   Ceiling: Unl
Heat Index:   Visibility: 10mi
Dew Point:   Wind: 7mph
Humidity: 70%   Direction: 110°ESE
Pressure: 30.23"   Gusts: NA
Location:  38.895°N, 89.397°W
Report Text: K3LF 230135Z AUTO 11006KT 10SM CLR 08/03 A3023 RMK AO2 T00820030
Loading
Personal Weather Stations






























Interactive Weather Map
Tropical Storm Tracking
New forecast layout! Learn more

10-Day Weather Forecast

Advertisements
Track Severe Weather on mobile